Terminal Aerodrome Forecast
Issued by NWS

Home | Current Version | Previous Version | Text Only | Print | Product List | Glossary On
Versions: 1 2 3 4 5 6 7 8 9 10 11 12 13 14 15 16
000
FTUS44 KBMX 271254 AAA
TAFEET
TAF AMD
KEET 271254Z 2713/2812 00000KT P6SM OVC006
     FM271500 22010G18KT P6SM BKN040 BKN080
     FM280000 21005KT P6SM BKN040
     FM280600 20003KT P6SM BKN020=

USA.gov is the U.S. government's official web portal to all federal, state and local government web resources and services.